Sajir — V7HL4 — position and weather

sailwx.info

Track history (hours):
 
Tides and Currents Weather Stations Pressure Air Temp Water Temp Dewpoint Dewpoint Depression Visibility Wind Speed Wind Dir Waves Ship Positions

Sajir

Last reported at 2018-Feb-13 11:12 UTC. Time now 2018-Feb-25 13:17 UTC.
Position N 36°17' E 014°44'.
Warning: this ship's position is 12 days out of date.

Length 368 m; draft 14.8 m.

Type: Ship (hazmat cat A). MMSI: 538005839.

Date/timePositionNaut miles runAvg speedWind from/ knotsBaromVisibWave heightAir tempDewpointWater temp
2018-Feb-13 11:12N 36°17' E 014°44'317.7
2018-Feb-13 11:00N 36°18' E 014°40'917.8
2018-Feb-13 10:30N 36°21' E 014°30'917.9
2018-Feb-13 10:00N 36°25' E 014°20'917.7
2018-Feb-13 09:30N 36°28' E 014°09'918.1
2018-Feb-13 08:59N 36°31' E 013°59'917.8
2018-Feb-13 08:30N 36°35' E 013°49'917.9
2018-Feb-13 08:00N 36°39' E 013°39'917.9
2018-Feb-13 07:30N 36°44' E 013°30'89518.1
2018-Feb-11 06:03N 36°00' W 005°01'420.6
2018-Feb-11 05:53N 35°60' W 005°05'821.0
2018-Feb-11 05:30N 35°59' W 005°15'1019.8
2018-Feb-11 05:01N 35°57' W 005°27'3 0.2
2018-Feb-10 13:53N 35°56' W 005°30'250 5.2
2018-Feb-08 14:00N 38°06' W 009°58'3010.1
2018-Feb-08 11:00N 38°36' W 010°05'510.2
2018-Feb-08 10:30N 38°41' W 010°07'510.2
2018-Feb-08 10:00N 38°46' W 010°07'510.0
2018-Feb-08 09:30N 38°51' W 010°07'510.0
2018-Feb-08 09:00N 38°56' W 010°07'5 9.8
2018-Feb-08 08:30N 39°01' W 010°07'5 9.4
2018-Feb-08 08:00N 39°06' W 010°07'5 9.7
2018-Feb-08 07:30N 39°11' W 010°07'  
2018-Feb-05 22:18N 48°49' W 005°51'410.5
2018-Feb-05 21:57N 48°53' W 005°49'23 9.3
2018-Feb-05 19:28N 49°04' W 005°18'2512.5
2018-Feb-05 17:29N 49°15' W 004°44'5815.1
2018-Feb-05 13:39N 49°44' W 003°27'317.0
2018-Feb-05 13:30N 49°45' W 003°23'816.5
2018-Feb-05 13:00N 49°50' W 003°14'1615.6
2018-Feb-05 12:00N 49°59' W 002°53'1616.0
2018-Feb-05 11:00N 50°03' W 002°30'1015.3
2018-Feb-05 10:21N 50°06' W 002°15'1914.4
2018-Feb-05 09:00N 50°13' W 001°47'714.7
2018-Feb-05 08:30N 50°16' W 001°36'714.5
2018-Feb-05 08:00N 50°18' W 001°25'1215.2
2018-Feb-05 07:15N 50°22' W 001°08'414.9
2018-Feb-05 07:00N 50°25' W 001°06'815.1
2018-Feb-05 06:30N 50°32' W 001°01'1110.9
2018-Feb-05 05:31N 50°43' W 001°01'815.2
2018-Feb-05 05:01N 50°46' W 001°13'4 8.0
2018-Feb-05 04:30N 50°48' W 001°18'4 8.6
2018-Feb-05 04:00N 50°52' W 001°22'4 7.6
2018-Feb-05 03:30N 50°54' W 001°26'1 1.5
2018-Feb-05 03:00N 50°54' W 001°27'0 0.6
2018-Feb-05 02:30N 50°54' W 001°28'0 0.0
2018-Feb-05 02:00N 50°54' W 001°28'0 0.0
2018-Feb-05 01:30N 50°54' W 001°28'0 0.0
2018-Feb-05 01:00N 50°54' W 001°28'0 0.0
2018-Feb-05 00:18N 50°54' W 001°28'0 0.0
2018-Feb-05 00:00N 50°54' W 001°28'0 0.0
2018-Feb-04 23:30N 50°54' W 001°28'0 0.0
2018-Feb-04 22:51N 50°54' W 001°28'0 0.0
2018-Feb-04 22:24N 50°54' W 001°28'0 0.0
2018-Feb-04 21:51N 50°54' W 001°28'0 0.0
2018-Feb-04 21:30N 50°54' W 001°28'0 0.0
2018-Feb-04 21:00N 50°54' W 001°28'0 0.0
2018-Feb-04 19:59N 50°54' W 001°28'0 0.0
2018-Feb-04 19:29N 50°54' W 001°28'0 0.0
2018-Feb-04 18:56N 50°54' W 001°28'0 0.0
2018-Feb-04 18:29N 50°54' W 001°28'0 0.0
2018-Feb-04 17:59N 50°54' W 001°28'0 0.0
2018-Feb-04 17:23N 50°54' W 001°28'0 0.0
2018-Feb-04 15:23N 50°54' W 001°28'0 0.0
2018-Feb-04 14:53N 50°54' W 001°28'0 0.0
2018-Feb-04 14:26N 50°54' W 001°28'0 0.0
2018-Feb-04 13:56N 50°54' W 001°28'0 0.0
2018-Feb-04 13:26N 50°54' W 001°28'0 0.0
2018-Feb-04 12:41N 50°54' W 001°28'0 0.0
2018-Feb-04 12:29N 50°54' W 001°28'0 0.0
2018-Feb-04 11:26N 50°54' W 001°28'0 0.0
2018-Feb-04 09:56N 50°54' W 001°28'0 0.0
2018-Feb-04 08:59N 50°54' W 001°28'0 0.0
2018-Feb-04 08:29N 50°54' W 001°28'0 0.0
2018-Feb-04 07:59N 50°54' W 001°28'0 0.0
2018-Feb-04 07:29N 50°54' W 001°28'0 0.0
2018-Feb-04 06:59N 50°54' W 001°28'0 0.0
2018-Feb-04 06:29N 50°54' W 001°28'0 0.0
2018-Feb-04 05:56N 50°54' W 001°28'0 0.0
2018-Feb-04 05:29N 50°54' W 001°28'0 0.0
2018-Feb-04 04:59N 50°54' W 001°28'0 0.0
2018-Feb-04 04:29N 50°54' W 001°28'0 0.0
2018-Feb-04 03:59N 50°54' W 001°28'0 0.0
2018-Feb-04 03:29N 50°54' W 001°28'0 0.0
2018-Feb-04 02:59N 50°54' W 001°28'0 0.0
2018-Feb-04 02:29N 50°54' W 001°28'0 0.0
2018-Feb-04 01:56N 50°54' W 001°28'0 0.0
2018-Feb-04 01:29N 50°54' W 001°28'0 0.0
2018-Feb-04 00:59N 50°54' W 001°28'0 0.0
2018-Feb-04 00:30N 50°54' W 001°28'1 1.8
2018-Feb-04 00:01N 50°54' W 001°26'3 6.4
2018-Feb-03 23:31N 50°52' W 001°23'5 9.3
2018-Feb-03 23:01N 50°49' W 001°18'3 6.6
2018-Feb-03 22:31N 50°46' W 001°14'713.7
2018-Feb-03 22:01N 50°44' W 001°04'612.5
2018-Feb-03 21:31N 50°40' W 000°57'5 9.4
2018-Feb-03 21:00N 50°35' W 000°55'3 6.4
2018-Feb-03 20:30N 50°35' W 000°50'3 5.2
2018-Feb-03 20:01N 50°35' W 000°46'10 6.8
2018-Feb-03 18:31N 50°33' W 000°30'511.0
2018-Feb-03 18:01N 50°32' W 000°22'611.2
2018-Feb-03 17:31N 50°32' W 000°13'611.1
2018-Feb-03 17:00N 50°32' W 000°04'1110.9
2018-Feb-03 16:01N 50°34' E 000°12'510.5
2018-Feb-03 15:31N 50°35' E 000°20'510.1
2018-Feb-03 15:01N 50°37' E 000°28'5 9.5
2018-Feb-03 14:30N 50°38' E 000°35'4 8.9
2018-Feb-03 14:01N 50°41' E 000°41'4 8.3
2018-Feb-03 13:31N 50°43' E 000°46'4 7.9
2018-Feb-03 13:01N 50°45' E 000°52'4 7.7
2018-Feb-03 12:30N 50°47' E 000°57'4 7.6
2018-Feb-03 12:00N 50°50' E 001°02'4 8.0
2018-Feb-03 11:30N 50°52' E 001°07'  
Track history (hours):
 
Tides and Currents Weather Stations Pressure Air Temp Water Temp Dewpoint Dewpoint Depression Visibility Wind Speed Wind Dir Waves Ship Positions

Sajir

Last reported at 2018-Feb-13 11:12 UTC. Time now 2018-Feb-25 13:17 UTC.
Position N 36°17' E 014°44'.
Warning: this ship's position is 12 days out of date.

Length 368 m; draft 14.8 m.

Type: Ship (hazmat cat A). MMSI: 538005839.

Date/timePositionNaut miles runAvg speedWind from/ knotsBaromVisibWave heightAir tempDewpointWater temp
2018-Feb-13 11:12N 36°17' E 014°44'317.7
2018-Feb-13 11:00N 36°18' E 014°40'917.8
2018-Feb-13 10:30N 36°21' E 014°30'917.9
2018-Feb-13 10:00N 36°25' E 014°20'917.7
2018-Feb-13 09:30N 36°28' E 014°09'918.1
2018-Feb-13 08:59N 36°31' E 013°59'917.8
2018-Feb-13 08:30N 36°35' E 013°49'917.9
2018-Feb-13 08:00N 36°39' E 013°39'917.9
2018-Feb-13 07:30N 36°44' E 013°30'89518.1
2018-Feb-11 06:03N 36°00' W 005°01'420.6
2018-Feb-11 05:53N 35°60' W 005°05'821.0
2018-Feb-11 05:30N 35°59' W 005°15'1019.8
2018-Feb-11 05:01N 35°57' W 005°27'3 0.2
2018-Feb-10 13:53N 35°56' W 005°30'250 5.2
2018-Feb-08 14:00N 38°06' W 009°58'3010.1
2018-Feb-08 11:00N 38°36' W 010°05'510.2
2018-Feb-08 10:30N 38°41' W 010°07'510.2
2018-Feb-08 10:00N 38°46' W 010°07'510.0
2018-Feb-08 09:30N 38°51' W 010°07'510.0
2018-Feb-08 09:00N 38°56' W 010°07'5 9.8
2018-Feb-08 08:30N 39°01' W 010°07'5 9.4
2018-Feb-08 08:00N 39°06' W 010°07'5 9.7
2018-Feb-08 07:30N 39°11' W 010°07'  
2018-Feb-05 22:18N 48°49' W 005°51'410.5
2018-Feb-05 21:57N 48°53' W 005°49'23 9.3
2018-Feb-05 19:28N 49°04' W 005°18'2512.5
2018-Feb-05 17:29N 49°15' W 004°44'5815.1
2018-Feb-05 13:39N 49°44' W 003°27'317.0
2018-Feb-05 13:30N 49°45' W 003°23'816.5
2018-Feb-05 13:00N 49°50' W 003°14'1615.6
2018-Feb-05 12:00N 49°59' W 002°53'1616.0
2018-Feb-05 11:00N 50°03' W 002°30'1015.3
2018-Feb-05 10:21N 50°06' W 002°15'1914.4
2018-Feb-05 09:00N 50°13' W 001°47'714.7
2018-Feb-05 08:30N 50°16' W 001°36'714.5
2018-Feb-05 08:00N 50°18' W 001°25'1215.2
2018-Feb-05 07:15N 50°22' W 001°08'414.9
2018-Feb-05 07:00N 50°25' W 001°06'815.1
2018-Feb-05 06:30N 50°32' W 001°01'1110.9
2018-Feb-05 05:31N 50°43' W 001°01'815.2
2018-Feb-05 05:01N 50°46' W 001°13'4 8.0
2018-Feb-05 04:30N 50°48' W 001°18'4 8.6
2018-Feb-05 04:00N 50°52' W 001°22'4 7.6
2018-Feb-05 03:30N 50°54' W 001°26'1 1.5
2018-Feb-05 03:00N 50°54' W 001°27'0 0.6
2018-Feb-05 02:30N 50°54' W 001°28'0 0.0
2018-Feb-05 02:00N 50°54' W 001°28'0 0.0
2018-Feb-05 01:30N 50°54' W 001°28'0 0.0
2018-Feb-05 01:00N 50°54' W 001°28'0 0.0
2018-Feb-05 00:18N 50°54' W 001°28'0 0.0
2018-Feb-05 00:00N 50°54' W 001°28'0 0.0
2018-Feb-04 23:30N 50°54' W 001°28'0 0.0
2018-Feb-04 22:51N 50°54' W 001°28'0 0.0
2018-Feb-04 22:24N 50°54' W 001°28'0 0.0
2018-Feb-04 21:51N 50°54' W 001°28'0 0.0
2018-Feb-04 21:30N 50°54' W 001°28'0 0.0
2018-Feb-04 21:00N 50°54' W 001°28'0 0.0
2018-Feb-04 19:59N 50°54' W 001°28'0 0.0
2018-Feb-04 19:29N 50°54' W 001°28'0 0.0
2018-Feb-04 18:56N 50°54' W 001°28'0 0.0
2018-Feb-04 18:29N 50°54' W 001°28'0 0.0
2018-Feb-04 17:59N 50°54' W 001°28'0 0.0
2018-Feb-04 17:23N 50°54' W 001°28'0 0.0
2018-Feb-04 15:23N 50°54' W 001°28'0 0.0
2018-Feb-04 14:53N 50°54' W 001°28'0 0.0
2018-Feb-04 14:26N 50°54' W 001°28'0 0.0
2018-Feb-04 13:56N 50°54' W 001°28'0 0.0
2018-Feb-04 13:26N 50°54' W 001°28'0 0.0
2018-Feb-04 12:41N 50°54' W 001°28'0 0.0
2018-Feb-04 12:29N 50°54' W 001°28'0 0.0
2018-Feb-04 11:26N 50°54' W 001°28'0 0.0
2018-Feb-04 09:56N 50°54' W 001°28'0 0.0
2018-Feb-04 08:59N 50°54' W 001°28'0 0.0
2018-Feb-04 08:29N 50°54' W 001°28'0 0.0
2018-Feb-04 07:59N 50°54' W 001°28'0 0.0
2018-Feb-04 07:29N 50°54' W 001°28'0 0.0
2018-Feb-04 06:59N 50°54' W 001°28'0 0.0
2018-Feb-04 06:29N 50°54' W 001°28'0 0.0
2018-Feb-04 05:56N 50°54' W 001°28'0 0.0
2018-Feb-04 05:29N 50°54' W 001°28'0 0.0
2018-Feb-04 04:59N 50°54' W 001°28'0 0.0
2018-Feb-04 04:29N 50°54' W 001°28'0 0.0
2018-Feb-04 03:59N 50°54' W 001°28'0 0.0
2018-Feb-04 03:29N 50°54' W 001°28'0 0.0
2018-Feb-04 02:59N 50°54' W 001°28'0 0.0
2018-Feb-04 02:29N 50°54' W 001°28'0 0.0
2018-Feb-04 01:56N 50°54' W 001°28'0 0.0
2018-Feb-04 01:29N 50°54' W 001°28'0 0.0
2018-Feb-04 00:59N 50°54' W 001°28'0 0.0
2018-Feb-04 00:30N 50°54' W 001°28'1 1.8
2018-Feb-04 00:01N 50°54' W 001°26'3 6.4
2018-Feb-03 23:31N 50°52' W 001°23'5 9.3
2018-Feb-03 23:01N 50°49' W 001°18'3 6.6
2018-Feb-03 22:31N 50°46' W 001°14'713.7
2018-Feb-03 22:01N 50°44' W 001°04'612.5
2018-Feb-03 21:31N 50°40' W 000°57'5 9.4
2018-Feb-03 21:00N 50°35' W 000°55'3 6.4
2018-Feb-03 20:30N 50°35' W 000°50'3 5.2
2018-Feb-03 20:01N 50°35' W 000°46'10 6.8
2018-Feb-03 18:31N 50°33' W 000°30'511.0
2018-Feb-03 18:01N 50°32' W 000°22'611.2
2018-Feb-03 17:31N 50°32' W 000°13'611.1
2018-Feb-03 17:00N 50°32' W 000°04'1110.9
2018-Feb-03 16:01N 50°34' E 000°12'510.5
2018-Feb-03 15:31N 50°35' E 000°20'510.1
2018-Feb-03 15:01N 50°37' E 000°28'5 9.5
2018-Feb-03 14:30N 50°38' E 000°35'4 8.9
2018-Feb-03 14:01N 50°41' E 000°41'4 8.3
2018-Feb-03 13:31N 50°43' E 000°46'4 7.9
2018-Feb-03 13:01N 50°45' E 000°52'4 7.7
2018-Feb-03 12:30N 50°47' E 000°57'4 7.6
2018-Feb-03 12:00N 50°50' E 001°02'4 8.0
2018-Feb-03 11:30N 50°52' E 001°07'  

Dump ship's entire track history